sensor_id;sensor_type;location;lat;lon;timestamp;temperature;humidity
18454;DHT22;9356;52.202;20.950;2022-09-09T00:02:19;12.90;91.00
18454;DHT22;9356;52.202;20.950;2022-09-09T00:03:38;12.80;91.70
18454;DHT22;9356;52.202;20.950;2022-09-09T00:04:59;12.80;92.00
18454;DHT22;9356;52.202;20.950;2022-09-09T00:06:23;11.20;92.10
18454;DHT22;9356;52.202;20.950;2022-09-09T00:07:45;12.80;93.10
18454;DHT22;9356;52.202;20.950;2022-09-09T00:09:02;12.80;93.60
18454;DHT22;9356;52.202;20.950;2022-09-09T00:10:28;12.60;93.80
18454;DHT22;9356;52.202;20.950;2022-09-09T00:11:45;12.60;94.30
18454;DHT22;9356;52.202;20.950;2022-09-09T00:13:28;12.60;94.70
18454;DHT22;9356;52.202;20.950;2022-09-09T00:16:07;12.50;95.20
18454;DHT22;9356;52.202;20.950;2022-09-09T00:17:33;12.50;95.40
18454;DHT22;9356;52.202;20.950;2022-09-09T00:18:54;12.50;95.70
18454;DHT22;9356;52.202;20.950;2022-09-09T00:20:12;12.40;95.90
18454;DHT22;9356;52.202;20.950;2022-09-09T00:21:32;12.40;96.40
18454;DHT22;9356;52.202;20.950;2022-09-09T00:22:53;12.40;96.70
18454;DHT22;9356;52.202;20.950;2022-09-09T00:24:08;12.40;96.70
18454;DHT22;9356;52.202;20.950;2022-09-09T00:25:27;12.40;97.00
18454;DHT22;9356;52.202;20.950;2022-09-09T00:26:39;12.30;97.20
18454;DHT22;9356;52.202;20.950;2022-09-09T00:29:05;12.20;97.50
18454;DHT22;9356;52.202;20.950;2022-09-09T00:30:17;12.20;97.90
18454;DHT22;9356;52.202;20.950;2022-09-09T00:31:31;14.40;98.80
18454;DHT22;9356;52.202;20.950;2022-09-09T00:32:47;12.20;98.20
18454;DHT22;9356;52.202;20.950;2022-09-09T00:33:54;12.10;98.40
18454;DHT22;9356;52.202;20.950;2022-09-09T00:35:03;12.10;98.50
18454;DHT22;9356;52.202;20.950;2022-09-09T00:36:22;12.10;98.70
18454;DHT22;9356;52.202;20.950;2022-09-09T00:37:35;12.10;99.00
18454;DHT22;9356;52.202;20.950;2022-09-09T00:38:43;11.90;99.20
18454;DHT22;9356;52.202;20.950;2022-09-09T00:41:39;11.90;99.50
18454;DHT22;9356;52.202;20.950;2022-09-09T00:42:45;11.90;99.70
18454;DHT22;9356;52.202;20.950;2022-09-09T00:43:57;11.80;99.90
18454;DHT22;9356;52.202;20.950;2022-09-09T00:45:17;11.80;99.90
18454;DHT22;9356;52.202;20.950;2022-09-09T00:46:53;11.90;99.90
18454;DHT22;9356;52.202;20.950;2022-09-09T00:48:11;11.90;99.90
18454;DHT22;9356;52.202;20.950;2022-09-09T00:49:33;12.00;99.90
18454;DHT22;9356;52.202;20.950;2022-09-09T00:50:47;12.00;99.90
18454;DHT22;9356;52.202;20.950;2022-09-09T00:52:08;12.00;99.90
18454;DHT22;9356;52.202;20.950;2022-09-09T00:53:28;12.00;99.90
18454;DHT22;9356;52.202;20.950;2022-09-09T00:54:47;11.90;99.90
18454;DHT22;9356;52.202;20.950;2022-09-09T00:57:29;12.00;99.90
18454;DHT22;9356;52.202;20.950;2022-09-09T00:58:42;12.10;99.90
18454;DHT22;9356;52.202;20.950;2022-09-09T01:00:19;12.20;99.90
18454;DHT22;9356;52.202;20.950;2022-09-09T01:01:32;12.10;99.90
18454;DHT22;9356;52.202;20.950;2022-09-09T01:02:47;12.10;99.90
18454;DHT22;9356;52.202;20.950;2022-09-09T01:03:58;12.10;99.90
18454;DHT22;9356;52.202;20.950;2022-09-09T01:05:10;13.90;99.90
18454;DHT22;9356;52.202;20.950;2022-09-09T01:06:28;12.00;99.90
18454;DHT22;9356;52.202;20.950;2022-09-09T01:07:37;12.10;99.90
18454;DHT22;9356;52.202;20.950;2022-09-09T01:09:08;12.10;99.90
18454;DHT22;9356;52.202;20.950;2022-09-09T01:10:29;12.10;99.90
18454;DHT22;9356;52.202;20.950;2022-09-09T01:11:51;12.10;99.90
18454;DHT22;9356;52.202;20.950;2022-09-09T01:14:36;10.60;99.90
18454;DHT22;9356;52.202;20.950;2022-09-09T01:15:45;12.10;99.90
18454;DHT22;9356;52.202;20.950;2022-09-09T01:16:58;12.10;99.90
18454;DHT22;9356;52.202;20.950;2022-09-09T01:18:17;12.20;99.90
18454;DHT22;9356;52.202;20.950;2022-09-09T01:19:37;12.10;99.90
18454;DHT22;9356;52.202;20.950;2022-09-09T01:21:04;12.10;99.90
18454;DHT22;9356;52.202;20.950;2022-09-09T01:22:25;14.50;99.90
18454;DHT22;9356;52.202;20.950;2022-09-09T01:23:58;12.10;99.90
18454;DHT22;9356;52.202;20.950;2022-09-09T01:25:22;12.00;99.90
18454;DHT22;9356;52.202;20.950;2022-09-09T01:26:45;12.10;99.90
18454;DHT22;9356;52.202;20.950;2022-09-09T01:29:16;12.00;99.90
18454;DHT22;9356;52.202;20.950;2022-09-09T01:30:22;12.00;99.90
18454;DHT22;9356;52.202;20.950;2022-09-09T01:31:31;12.00;99.90
18454;DHT22;9356;52.202;20.950;2022-09-09T01:32:42;12.00;99.90
18454;DHT22;9356;52.202;20.950;2022-09-09T01:33:47;12.00;99.90
18454;DHT22;9356;52.202;20.950;2022-09-09T01:36:09;12.00;99.90
18454;DHT22;9356;52.202;20.950;2022-09-09T01:37:22;11.90;99.90
18454;DHT22;9356;52.202;20.950;2022-09-09T01:38:31;11.90;99.90
18454;DHT22;9356;52.202;20.950;2022-09-09T01:39:38;11.90;99.90
18454;DHT22;9356;52.202;20.950;2022-09-09T01:40:45;11.90;99.90
18454;DHT22;9356;52.202;20.950;2022-09-09T01:42:58;11.90;99.90
18454;DHT22;9356;52.202;20.950;2022-09-09T01:44:08;11.90;99.90
18454;DHT22;9356;52.202;20.950;2022-09-09T01:45:16;11.90;99.90
18454;DHT22;9356;52.202;20.950;2022-09-09T01:46:22;12.00;99.90
18454;DHT22;9356;52.202;20.950;2022-09-09T01:47:26;11.90;99.90
18454;DHT22;9356;52.202;20.950;2022-09-09T01:48:51;12.00;99.90
18454;DHT22;9356;52.202;20.950;2022-09-09T01:49:55;11.90;99.90
18454;DHT22;9356;52.202;20.950;2022-09-09T01:51:09;12.00;99.90
18454;DHT22;9356;52.202;20.950;2022-09-09T01:52:14;12.00;99.90
18454;DHT22;9356;52.202;20.950;2022-09-09T01:53:22;12.00;99.90
18454;DHT22;9356;52.202;20.950;2022-09-09T01:54:28;12.00;99.90
18454;DHT22;9356;52.202;20.950;2022-09-09T01:55:39;12.10;99.90
18454;DHT22;9356;52.202;20.950;2022-09-09T01:56:57;10.80;99.90
18454;DHT22;9356;52.202;20.950;2022-09-09T01:58:26;12.10;99.90
18454;DHT22;9356;52.202;20.950;2022-09-09T01:59:49;12.20;99.90
18454;DHT22;9356;52.202;20.950;2022-09-09T02:01:06;11.90;99.90
18454;DHT22;9356;52.202;20.950;2022-09-09T02:02:19;12.10;99.90
18454;DHT22;9356;52.202;20.950;2022-09-09T02:03:47;12.10;99.90
18454;DHT22;9356;52.202;20.950;2022-09-09T02:06:33;12.00;99.90
18454;DHT22;9356;52.202;20.950;2022-09-09T02:08:03;12.00;99.90
18454;DHT22;9356;52.202;20.950;2022-09-09T02:09:23;12.10;99.90
18454;DHT22;9356;52.202;20.950;2022-09-09T02:10:44;12.00;99.90
18454;DHT22;9356;52.202;20.950;2022-09-09T02:12:10;12.00;99.90
18454;DHT22;9356;52.202;20.950;2022-09-09T02:13:22;12.00;99.90
18454;DHT22;9356;52.202;20.950;2022-09-09T02:14:33;11.90;99.90
18454;DHT22;9356;52.202;20.950;2022-09-09T02:15:45;12.00;99.90
18454;DHT22;9356;52.202;20.950;2022-09-09T02:18:36;12.00;99.90
18454;DHT22;9356;52.202;20.950;2022-09-09T02:19:48;12.00;99.90
18454;DHT22;9356;52.202;20.950;2022-09-09T02:21:03;12.00;99.90
18454;DHT22;9356;52.202;20.950;2022-09-09T02:22:18;12.00;99.90
18454;DHT22;9356;52.202;20.950;2022-09-09T02:23:24;12.00;99.90
18454;DHT22;9356;52.202;20.950;2022-09-09T02:24:36;10.50;99.90
18454;DHT22;9356;52.202;20.950;2022-09-09T02:25:52;12.00;99.90
18454;DHT22;9356;52.202;20.950;2022-09-09T02:27:04;12.10;99.90
18454;DHT22;9356;52.202;20.950;2022-09-09T02:28:14;12.10;99.90
18454;DHT22;9356;52.202;20.950;2022-09-09T02:29:30;12.00;99.90
18454;DHT22;9356;52.202;20.950;2022-09-09T02:30:38;12.00;99.90
18454;DHT22;9356;52.202;20.950;2022-09-09T02:31:49;12.00;99.90
18454;DHT22;9356;52.202;20.950;2022-09-09T02:33:04;12.00;99.90
18454;DHT22;9356;52.202;20.950;2022-09-09T02:34:22;12.00;99.90
18454;DHT22;9356;52.202;20.950;2022-09-09T02:35:35;12.10;99.90
18454;DHT22;9356;52.202;20.950;2022-09-09T02:36:44;12.10;99.90
18454;DHT22;9356;52.202;20.950;2022-09-09T02:37:59;12.10;99.90
18454;DHT22;9356;52.202;20.950;2022-09-09T02:39:08;12.10;99.90
18454;DHT22;9356;52.202;20.950;2022-09-09T02:40:16;12.00;99.90
18454;DHT22;9356;52.202;20.950;2022-09-09T02:41:31;12.00;99.90
18454;DHT22;9356;52.202;20.950;2022-09-09T02:42:49;10.80;99.90
18454;DHT22;9356;52.202;20.950;2022-09-09T02:43:56;11.30;99.90
18454;DHT22;9356;52.202;20.950;2022-09-09T02:45:03;12.20;99.90
18454;DHT22;9356;52.202;20.950;2022-09-09T02:46:18;12.20;99.90
18454;DHT22;9356;52.202;20.950;2022-09-09T02:47:36;12.20;99.90
18454;DHT22;9356;52.202;20.950;2022-09-09T02:49:00;12.30;99.90
18454;DHT22;9356;52.202;20.950;2022-09-09T02:50:13;12.30;99.90
18454;DHT22;9356;52.202;20.950;2022-09-09T02:51:26;12.30;99.90
18454;DHT22;9356;52.202;20.950;2022-09-09T02:52:45;12.30;99.90
18454;DHT22;9356;52.202;20.950;2022-09-09T02:55:07;12.30;99.90
18454;DHT22;9356;52.202;20.950;2022-09-09T02:56:18;12.30;99.90
18454;DHT22;9356;52.202;20.950;2022-09-09T02:57:33;12.20;99.90
18454;DHT22;9356;52.202;20.950;2022-09-09T02:58:40;12.30;99.90
18454;DHT22;9356;52.202;20.950;2022-09-09T02:59:45;12.30;99.90
18454;DHT22;9356;52.202;20.950;2022-09-09T03:01:58;12.30;99.90
18454;DHT22;9356;52.202;20.950;2022-09-09T03:03:06;12.30;99.90
18454;DHT22;9356;52.202;20.950;2022-09-09T03:04:14;12.20;99.90
18454;DHT22;9356;52.202;20.950;2022-09-09T03:05:18;12.80;99.90
18454;DHT22;9356;52.202;20.950;2022-09-09T03:06:28;12.20;99.90
18454;DHT22;9356;52.202;20.950;2022-09-09T03:07:42;12.20;99.90
18454;DHT22;9356;52.202;20.950;2022-09-09T03:08:47;12.10;99.90
18454;DHT22;9356;52.202;20.950;2022-09-09T03:10:02;12.20;99.90
18454;DHT22;9356;52.202;20.950;2022-09-09T03:11:05;12.10;99.90
18454;DHT22;9356;52.202;20.950;2022-09-09T03:12:12;12.10;99.90
18454;DHT22;9356;52.202;20.950;2022-09-09T03:13:16;12.10;99.90
18454;DHT22;9356;52.202;20.950;2022-09-09T03:14:26;12.10;99.90
18454;DHT22;9356;52.202;20.950;2022-09-09T03:15:30;12.20;99.90
18454;DHT22;9356;52.202;20.950;2022-09-09T03:16:42;12.20;99.90
18454;DHT22;9356;52.202;20.950;2022-09-09T03:17:45;12.10;99.90
18454;DHT22;9356;52.202;20.950;2022-09-09T03:19:57;12.10;99.90
18454;DHT22;9356;52.202;20.950;2022-09-09T03:21:02;12.20;99.90
18454;DHT22;9356;52.202;20.950;2022-09-09T03:22:12;12.20;99.90
18454;DHT22;9356;52.202;20.950;2022-09-09T03:23:21;12.20;99.90
18454;DHT22;9356;52.202;20.950;2022-09-09T03:24:26;12.10;99.90
18454;DHT22;9356;52.202;20.950;2022-09-09T03:25:33;12.10;99.90
18454;DHT22;9356;52.202;20.950;2022-09-09T03:26:42;12.10;99.90
18454;DHT22;9356;52.202;20.950;2022-09-09T03:27:51;12.10;99.90
18454;DHT22;9356;52.202;20.950;2022-09-09T03:29:00;12.10;99.90
18454;DHT22;9356;52.202;20.950;2022-09-09T03:30:06;12.10;99.90
18454;DHT22;9356;52.202;20.950;2022-09-09T03:31:12;12.10;99.90
18454;DHT22;9356;52.202;20.950;2022-09-09T03:32:20;12.10;99.90
18454;DHT22;9356;52.202;20.950;2022-09-09T03:33:27;12.20;99.90
18454;DHT22;9356;52.202;20.950;2022-09-09T03:34:33;12.20;99.90
18454;DHT22;9356;52.202;20.950;2022-09-09T03:35:44;12.20;99.90
18454;DHT22;9356;52.202;20.950;2022-09-09T03:36:53;10.50;99.90
18454;DHT22;9356;52.202;20.950;2022-09-09T03:38:00;12.20;99.90
18454;DHT22;9356;52.202;20.950;2022-09-09T03:39:08;12.20;99.90
18454;DHT22;9356;52.202;20.950;2022-09-09T03:40:14;12.70;99.90
18454;DHT22;9356;52.202;20.950;2022-09-09T03:41:24;12.30;99.90
18454;DHT22;9356;52.202;20.950;2022-09-09T03:42:39;12.20;99.90
18454;DHT22;9356;52.202;20.950;2022-09-09T03:43:42;12.20;99.90
18454;DHT22;9356;52.202;20.950;2022-09-09T03:44:47;12.20;99.90
18454;DHT22;9356;52.202;20.950;2022-09-09T03:45:56;12.20;99.90
18454;DHT22;9356;52.202;20.950;2022-09-09T03:47:06;12.20;99.90
18454;DHT22;9356;52.202;20.950;2022-09-09T03:48:13;12.20;99.90
18454;DHT22;9356;52.202;20.950;2022-09-09T03:49:23;12.20;99.90
18454;DHT22;9356;52.202;20.950;2022-09-09T03:50:34;12.20;99.90
18454;DHT22;9356;52.202;20.950;2022-09-09T03:51:40;12.20;99.90
18454;DHT22;9356;52.202;20.950;2022-09-09T03:52:49;12.30;99.90
18454;DHT22;9356;52.202;20.950;2022-09-09T03:54:25;10.60;99.90
18454;DHT22;9356;52.202;20.950;2022-09-09T03:55:30;11.30;99.90
18454;DHT22;9356;52.202;20.950;2022-09-09T03:56:39;12.30;99.90
18454;DHT22;9356;52.202;20.950;2022-09-09T03:59:05;12.30;99.90
18454;DHT22;9356;52.202;20.950;2022-09-09T04:00:12;12.30;99.90
18454;DHT22;9356;52.202;20.950;2022-09-09T04:01:17;12.30;99.90
18454;DHT22;9356;52.202;20.950;2022-09-09T04:02:25;12.30;99.90
18454;DHT22;9356;52.202;20.950;2022-09-09T04:03:32;12.30;99.90
18454;DHT22;9356;52.202;20.950;2022-09-09T04:04:37;12.30;99.90
18454;DHT22;9356;52.202;20.950;2022-09-09T04:05:39;12.30;99.90
18454;DHT22;9356;52.202;20.950;2022-09-09T04:06:45;12.30;99.90
18454;DHT22;9356;52.202;20.950;2022-09-09T04:07:51;12.30;99.90
18454;DHT22;9356;52.202;20.950;2022-09-09T04:10:10;12.40;99.90
18454;DHT22;9356;52.202;20.950;2022-09-09T04:11:15;12.40;99.90
18454;DHT22;9356;52.202;20.950;2022-09-09T04:12:23;12.30;99.90
18454;DHT22;9356;52.202;20.950;2022-09-09T04:13:28;12.30;99.90
18454;DHT22;9356;52.202;20.950;2022-09-09T04:14:32;12.40;99.90
18454;DHT22;9356;52.202;20.950;2022-09-09T04:15:41;12.40;99.90
18454;DHT22;9356;52.202;20.950;2022-09-09T04:16:46;12.50;99.90
18454;DHT22;9356;52.202;20.950;2022-09-09T04:17:50;12.50;99.90
18454;DHT22;9356;52.202;20.950;2022-09-09T04:19:03;12.50;99.90
18454;DHT22;9356;52.202;20.950;2022-09-09T04:20:11;12.50;99.90
18454;DHT22;9356;52.202;20.950;2022-09-09T04:21:15;12.50;99.90
18454;DHT22;9356;52.202;20.950;2022-09-09T04:22:31;12.50;99.90
18454;DHT22;9356;52.202;20.950;2022-09-09T04:23:34;12.60;99.90
18454;DHT22;9356;52.202;20.950;2022-09-09T04:24:39;12.60;99.90
18454;DHT22;9356;52.202;20.950;2022-09-09T04:26:01;12.60;99.90
18454;DHT22;9356;52.202;20.950;2022-09-09T04:27:12;12.60;99.90
18454;DHT22;9356;52.202;20.950;2022-09-09T04:28:29;12.60;99.90
18454;DHT22;9356;52.202;20.950;2022-09-09T04:29:35;12.50;99.90
18454;DHT22;9356;52.202;20.950;2022-09-09T04:30:43;12.60;99.90
18454;DHT22;9356;52.202;20.950;2022-09-09T04:33:26;12.50;99.90
18454;DHT22;9356;52.202;20.950;2022-09-09T04:34:30;12.50;99.90
18454;DHT22;9356;52.202;20.950;2022-09-09T04:35:34;12.50;99.90
18454;DHT22;9356;52.202;20.950;2022-09-09T04:36:39;12.70;99.90
18454;DHT22;9356;52.202;20.950;2022-09-09T04:37:44;12.50;99.90
18454;DHT22;9356;52.202;20.950;2022-09-09T04:39:58;12.50;99.90
18454;DHT22;9356;52.202;20.950;2022-09-09T04:41:06;12.60;99.90
18454;DHT22;9356;52.202;20.950;2022-09-09T04:42:20;13.60;99.90
18454;DHT22;9356;52.202;20.950;2022-09-09T04:43:28;12.60;99.90
18454;DHT22;9356;52.202;20.950;2022-09-09T04:44:41;12.60;99.90
18454;DHT22;9356;52.202;20.950;2022-09-09T04:45:49;12.60;99.90
18454;DHT22;9356;52.202;20.950;2022-09-09T04:47:01;12.50;99.90
18454;DHT22;9356;52.202;20.950;2022-09-09T04:48:11;12.50;99.90
18454;DHT22;9356;52.202;20.950;2022-09-09T04:49:13;12.50;99.90
18454;DHT22;9356;52.202;20.950;2022-09-09T04:50:26;12.50;99.90
18454;DHT22;9356;52.202;20.950;2022-09-09T04:51:36;12.50;99.90
18454;DHT22;9356;52.202;20.950;2022-09-09T04:52:40;12.60;99.90
18454;DHT22;9356;52.202;20.950;2022-09-09T04:53:45;12.60;99.90
18454;DHT22;9356;52.202;20.950;2022-09-09T04:54:52;12.60;99.90
18454;DHT22;9356;52.202;20.950;2022-09-09T04:56:05;12.60;99.90
18454;DHT22;9356;52.202;20.950;2022-09-09T04:57:22;12.70;99.90
18454;DHT22;9356;52.202;20.950;2022-09-09T04:58:29;12.60;99.90
18454;DHT22;9356;52.202;20.950;2022-09-09T04:59:34;12.70;99.90
18454;DHT22;9356;52.202;20.950;2022-09-09T05:00:39;12.60;99.90
18454;DHT22;9356;52.202;20.950;2022-09-09T05:01:48;12.70;99.90
18454;DHT22;9356;52.202;20.950;2022-09-09T05:02:54;12.70;99.90
18454;DHT22;9356;52.202;20.950;2022-09-09T05:04:00;12.70;99.90
18454;DHT22;9356;52.202;20.950;2022-09-09T05:05:05;12.70;99.90
18454;DHT22;9356;52.202;20.950;2022-09-09T05:06:12;12.80;99.90
18454;DHT22;9356;52.202;20.950;2022-09-09T05:07:17;13.00;99.90
18454;DHT22;9356;52.202;20.950;2022-09-09T05:08:23;12.80;99.90
18454;DHT22;9356;52.202;20.950;2022-09-09T05:09:29;12.90;99.90
18454;DHT22;9356;52.202;20.950;2022-09-09T05:10:38;12.80;99.90
18454;DHT22;9356;52.202;20.950;2022-09-09T05:11:41;12.90;99.90
18454;DHT22;9356;52.202;20.950;2022-09-09T05:13:04;12.90;99.90
18454;DHT22;9356;52.202;20.950;2022-09-09T05:14:15;12.80;99.90
18454;DHT22;9356;52.202;20.950;2022-09-09T05:15:26;12.80;99.90
18454;DHT22;9356;52.202;20.950;2022-09-09T05:16:29;12.80;99.90
18454;DHT22;9356;52.202;20.950;2022-09-09T05:17:35;12.90;99.90
18454;DHT22;9356;52.202;20.950;2022-09-09T05:18:38;12.90;99.90
18454;DHT22;9356;52.202;20.950;2022-09-09T05:19:56;12.90;99.90
18454;DHT22;9356;52.202;20.950;2022-09-09T05:21:01;13.00;99.90
18454;DHT22;9356;52.202;20.950;2022-09-09T05:22:08;14.30;99.90
18454;DHT22;9356;52.202;20.950;2022-09-09T05:23:19;13.00;99.90
18454;DHT22;9356;52.202;20.950;2022-09-09T05:24:24;13.00;99.90
18454;DHT22;9356;52.202;20.950;2022-09-09T05:25:35;12.90;99.90
18454;DHT22;9356;52.202;20.950;2022-09-09T05:26:40;12.80;99.90
18454;DHT22;9356;52.202;20.950;2022-09-09T05:27:47;12.90;99.90
18454;DHT22;9356;52.202;20.950;2022-09-09T05:28:56;12.80;99.90
18454;DHT22;9356;52.202;20.950;2022-09-09T05:30:08;12.80;99.90
18454;DHT22;9356;52.202;20.950;2022-09-09T05:31:17;12.80;99.90
18454;DHT22;9356;52.202;20.950;2022-09-09T05:32:29;12.80;99.90
18454;DHT22;9356;52.202;20.950;2022-09-09T05:33:36;12.80;99.90
18454;DHT22;9356;52.202;20.950;2022-09-09T05:34:41;12.80;99.90
18454;DHT22;9356;52.202;20.950;2022-09-09T05:35:46;12.80;99.90
18454;DHT22;9356;52.202;20.950;2022-09-09T05:36:55;12.80;99.90
18454;DHT22;9356;52.202;20.950;2022-09-09T05:38:02;15.60;99.90
18454;DHT22;9356;52.202;20.950;2022-09-09T05:39:05;12.80;99.90
18454;DHT22;9356;52.202;20.950;2022-09-09T05:40:09;12.80;99.90
18454;DHT22;9356;52.202;20.950;2022-09-09T05:41:16;12.90;99.90
18454;DHT22;9356;52.202;20.950;2022-09-09T05:42:21;12.80;99.90
18454;DHT22;9356;52.202;20.950;2022-09-09T05:43:25;11.30;99.90
18454;DHT22;9356;52.202;20.950;2022-09-09T05:44:32;12.70;99.90
18454;DHT22;9356;52.202;20.950;2022-09-09T05:45:39;12.80;99.90
18454;DHT22;9356;52.202;20.950;2022-09-09T05:46:45;12.80;99.90
18454;DHT22;9356;52.202;20.950;2022-09-09T05:47:52;12.80;99.90
18454;DHT22;9356;52.202;20.950;2022-09-09T05:48:55;10.70;99.90
18454;DHT22;9356;52.202;20.950;2022-09-09T05:50:10;12.80;99.90
18454;DHT22;9356;52.202;20.950;2022-09-09T05:51:19;12.90;99.90
18454;DHT22;9356;52.202;20.950;2022-09-09T05:52:26;12.40;99.90
18454;DHT22;9356;52.202;20.950;2022-09-09T05:53:32;12.80;99.90
18454;DHT22;9356;52.202;20.950;2022-09-09T05:54:36;12.80;99.90
18454;DHT22;9356;52.202;20.950;2022-09-09T05:55:44;12.80;99.90
18454;DHT22;9356;52.202;20.950;2022-09-09T05:56:55;12.90;99.90
18454;DHT22;9356;52.202;20.950;2022-09-09T05:58:05;12.90;99.90
18454;DHT22;9356;52.202;20.950;2022-09-09T05:59:11;12.90;99.90
18454;DHT22;9356;52.202;20.950;2022-09-09T06:00:17;12.90;99.90
18454;DHT22;9356;52.202;20.950;2022-09-09T06:01:27;12.90;99.90
18454;DHT22;9356;52.202;20.950;2022-09-09T06:02:36;12.90;99.90
18454;DHT22;9356;52.202;20.950;2022-09-09T06:03:43;12.90;99.90
18454;DHT22;9356;52.202;20.950;2022-09-09T06:06:16;13.00;99.90
18454;DHT22;9356;52.202;20.950;2022-09-09T06:07:23;13.00;99.90
18454;DHT22;9356;52.202;20.950;2022-09-09T06:08:30;13.00;99.90
18454;DHT22;9356;52.202;20.950;2022-09-09T06:09:35;13.00;99.90
18454;DHT22;9356;52.202;20.950;2022-09-09T06:10:42;13.00;99.90
18454;DHT22;9356;52.202;20.950;2022-09-09T06:11:48;13.00;99.90
18454;DHT22;9356;52.202;20.950;2022-09-09T06:14:13;12.90;99.90
18454;DHT22;9356;52.202;20.950;2022-09-09T06:15:23;12.90;99.90
18454;DHT22;9356;52.202;20.950;2022-09-09T06:16:34;12.90;99.90
18454;DHT22;9356;52.202;20.950;2022-09-09T06:17:57;13.10;99.90
18454;DHT22;9356;52.202;20.950;2022-09-09T06:19:19;13.90;99.90
18454;DHT22;9356;52.202;20.950;2022-09-09T06:20:38;13.20;99.90
18454;DHT22;9356;52.202;20.950;2022-09-09T06:21:47;13.20;99.90
18454;DHT22;9356;52.202;20.950;2022-09-09T06:22:59;13.20;99.90
18454;DHT22;9356;52.202;20.950;2022-09-09T06:24:06;13.20;99.90
18454;DHT22;9356;52.202;20.950;2022-09-09T06:25:15;13.20;99.90
18454;DHT22;9356;52.202;20.950;2022-09-09T06:26:20;13.20;99.90
18454;DHT22;9356;52.202;20.950;2022-09-09T06:27:31;13.20;99.90
18454;DHT22;9356;52.202;20.950;2022-09-09T06:28:43;13.10;99.90
18454;DHT22;9356;52.202;20.950;2022-09-09T06:29:48;13.20;99.90
18454;DHT22;9356;52.202;20.950;2022-09-09T06:30:59;13.20;99.90
18454;DHT22;9356;52.202;20.950;2022-09-09T06:32:08;13.20;99.90
18454;DHT22;9356;52.202;20.950;2022-09-09T06:33:19;13.20;99.90
18454;DHT22;9356;52.202;20.950;2022-09-09T06:34:26;13.20;99.90
18454;DHT22;9356;52.202;20.950;2022-09-09T06:35:33;13.20;99.90
18454;DHT22;9356;52.202;20.950;2022-09-09T06:36:39;12.70;99.90
18454;DHT22;9356;52.202;20.950;2022-09-09T06:37:55;13.20;99.90
18454;DHT22;9356;52.202;20.950;2022-09-09T06:39:00;13.30;99.90
18454;DHT22;9356;52.202;20.950;2022-09-09T06:40:07;13.30;99.90
18454;DHT22;9356;52.202;20.950;2022-09-09T06:41:12;13.30;99.90
18454;DHT22;9356;52.202;20.950;2022-09-09T06:42:25;13.30;99.90
18454;DHT22;9356;52.202;20.950;2022-09-09T06:43:54;13.30;99.90
18454;DHT22;9356;52.202;20.950;2022-09-09T06:45:09;13.30;99.90
18454;DHT22;9356;52.202;20.950;2022-09-09T06:46:26;13.30;99.90
18454;DHT22;9356;52.202;20.950;2022-09-09T06:47:38;13.30;99.90
18454;DHT22;9356;52.202;20.950;2022-09-09T06:48:48;13.20;99.90
18454;DHT22;9356;52.202;20.950;2022-09-09T06:50:10;13.30;99.90
18454;DHT22;9356;52.202;20.950;2022-09-09T06:51:20;13.40;99.90
18454;DHT22;9356;52.202;20.950;2022-09-09T06:52:29;13.40;99.90
18454;DHT22;9356;52.202;20.950;2022-09-09T06:53:39;13.50;99.90
18454;DHT22;9356;52.202;20.950;2022-09-09T06:54:47;13.50;99.90
18454;DHT22;9356;52.202;20.950;2022-09-09T06:56:59;13.50;99.90
18454;DHT22;9356;52.202;20.950;2022-09-09T06:58:32;13.50;99.90
18454;DHT22;9356;52.202;20.950;2022-09-09T06:59:40;13.50;99.90
18454;DHT22;9356;52.202;20.950;2022-09-09T07:00:48;13.50;99.90
18454;DHT22;9356;52.202;20.950;2022-09-09T07:03:06;13.50;99.90
18454;DHT22;9356;52.202;20.950;2022-09-09T07:04:12;13.60;99.90
18454;DHT22;9356;52.202;20.950;2022-09-09T07:05:25;13.50;99.90
18454;DHT22;9356;52.202;20.950;2022-09-09T07:06:31;13.50;99.90
18454;DHT22;9356;52.202;20.950;2022-09-09T07:07:46;13.50;99.90
18454;DHT22;9356;52.202;20.950;2022-09-09T07:09:03;13.50;99.90
18454;DHT22;9356;52.202;20.950;2022-09-09T07:10:17;13.50;99.90
18454;DHT22;9356;52.202;20.950;2022-09-09T07:11:28;13.60;99.90
18454;DHT22;9356;52.202;20.950;2022-09-09T07:12:38;13.50;99.90
18454;DHT22;9356;52.202;20.950;2022-09-09T07:13:47;13.50;99.90
18454;DHT22;9356;52.202;20.950;2022-09-09T07:14:57;13.50;99.90
18454;DHT22;9356;52.202;20.950;2022-09-09T07:16:08;13.50;99.90
18454;DHT22;9356;52.202;20.950;2022-09-09T07:17:16;13.40;99.90
18454;DHT22;9356;52.202;20.950;2022-09-09T07:18:30;13.40;99.90
18454;DHT22;9356;52.202;20.950;2022-09-09T07:19:34;13.40;99.90
18454;DHT22;9356;52.202;20.950;2022-09-09T07:20:53;13.40;99.90
18454;DHT22;9356;52.202;20.950;2022-09-09T07:21:59;13.50;99.90
18454;DHT22;9356;52.202;20.950;2022-09-09T07:23:09;13.40;99.90
18454;DHT22;9356;52.202;20.950;2022-09-09T07:24:28;13.50;99.90
18454;DHT22;9356;52.202;20.950;2022-09-09T07:25:35;11.80;99.90
18454;DHT22;9356;52.202;20.950;2022-09-09T07:26:40;13.60;99.90
18454;DHT22;9356;52.202;20.950;2022-09-09T07:27:57;13.70;99.90
18454;DHT22;9356;52.202;20.950;2022-09-09T07:29:03;13.80;99.90
18454;DHT22;9356;52.202;20.950;2022-09-09T07:30:10;13.80;99.90
18454;DHT22;9356;52.202;20.950;2022-09-09T07:31:29;13.80;99.90
18454;DHT22;9356;52.202;20.950;2022-09-09T07:34:00;13.70;99.90
18454;DHT22;9356;52.202;20.950;2022-09-09T07:35:08;13.70;99.90
18454;DHT22;9356;52.202;20.950;2022-09-09T07:36:16;13.60;99.90
18454;DHT22;9356;52.202;20.950;2022-09-09T07:37:28;13.70;99.90
18454;DHT22;9356;52.202;20.950;2022-09-09T07:38:50;13.70;99.90
18454;DHT22;9356;52.202;20.950;2022-09-09T07:39:55;13.50;99.90
18454;DHT22;9356;52.202;20.950;2022-09-09T07:41:06;13.70;99.90
18454;DHT22;9356;52.202;20.950;2022-09-09T07:42:15;13.70;99.90
18454;DHT22;9356;52.202;20.950;2022-09-09T07:43:26;13.70;99.90
18454;DHT22;9356;52.202;20.950;2022-09-09T07:44:33;13.70;99.90
18454;DHT22;9356;52.202;20.950;2022-09-09T07:45:47;13.70;99.90
18454;DHT22;9356;52.202;20.950;2022-09-09T07:48:11;13.70;99.90
18454;DHT22;9356;52.202;20.950;2022-09-09T07:49:20;13.60;99.90
18454;DHT22;9356;52.202;20.950;2022-09-09T07:50:34;13.60;99.90
18454;DHT22;9356;52.202;20.950;2022-09-09T07:51:44;13.60;99.90
18454;DHT22;9356;52.202;20.950;2022-09-09T07:52:55;13.60;99.90
18454;DHT22;9356;52.202;20.950;2022-09-09T07:54:02;13.60;99.90
18454;DHT22;9356;52.202;20.950;2022-09-09T07:55:08;13.50;99.90
18454;DHT22;9356;52.202;20.950;2022-09-09T07:56:17;13.60;99.90
18454;DHT22;9356;52.202;20.950;2022-09-09T07:57:26;13.60;99.90
18454;DHT22;9356;52.202;20.950;2022-09-09T07:58:33;13.60;99.90
18454;DHT22;9356;52.202;20.950;2022-09-09T07:59:41;13.60;99.90
18454;DHT22;9356;52.202;20.950;2022-09-09T08:00:52;13.60;99.90